Time;durP1;ratioP1;P1;durP2;ratioP2;P2;SDS_P1;SDS_P2;PMS_P1;PMS_P2;Temp;Humidity;BMP_temperature;BMP_pressure;BME280_temperature;BME280_humidity;BME280_pressure;Samples;Min_cycle;Max_cycle;Signal;HPM_P1;HPM_P2
2022/09/09 00:01:40;;;;;;;12.70;11.10;;;;;;;14.49;85.72;97263.33;110062;1247;70650;-67
2022/09/09 00:04:23;;;;;;;17.30;13.70;;;;;;;14.46;86.84;97264.97;110046;1247;69413;-67
2022/09/09 00:07:31;;;;;;;13.80;11.10;;;;;;;14.42;88.53;97266.33;110007;1248;69404;-67
2022/09/09 00:10:14;;;;;;;14.60;11.50;;;;;;;14.39;88.46;97265.72;110055;1248;60082;-69
2022/09/09 00:13:06;;;;;;;13.50;9.90;;;;;;;14.37;87.54;97261.90;110063;1247;59688;-67
2022/09/09 00:15:52;;;;;;;13.90;11.10;;;;;;;14.37;85.43;97259.52;110153;1247;70398;-68
2022/09/09 00:18:29;;;;;;;16.60;12.90;;;;;;;14.36;88.42;97269.95;110026;1247;69321;-69
2022/09/09 00:21:07;;;;;;;19.30;14.50;;;;;;;14.32;88.98;97268.67;110047;1248;69100;-68
2022/09/09 00:23:44;;;;;;;16.70;12.60;;;;;;;14.30;89.14;97273.80;110215;1247;59824;-67
2022/09/09 00:26:48;;;;;;;16.30;14.20;;;;;;;14.23;89.94;97269.98;110031;1248;59693;-68
2022/09/09 00:29:24;;;;;;;13.30;10.90;;;;;;;14.19;87.86;97270.50;108220;1249;2454739;-69
2022/09/09 00:32:11;;;;;;;18.80;13.80;;;;;;;14.18;88.20;97269.97;110129;1247;67579;-68
2022/09/09 00:35:22;;;;;;;13.40;10.80;;;;;;;14.14;89.88;97265.19;109945;1250;69230;-67
2022/09/09 00:38:00;;;;;;;14.20;11.30;;;;;;;14.10;86.64;97255.39;110096;1247;59704;-67
2022/09/09 00:40:41;;;;;;;16.90;14.00;;;;;;;14.08;86.66;97255.08;110071;1247;59675;-67
2022/09/09 00:43:38;;;;;;;16.20;13.60;;;;;;;14.06;88.20;97251.80;110144;1247;70969;-66
2022/09/09 00:46:25;;;;;;;15.60;11.60;;;;;;;14.04;88.95;97249.95;110099;1247;69300;-68
2022/09/09 00:49:05;;;;;;;17.90;12.20;;;;;;;14.03;89.79;97250.39;109982;1247;68923;-67
2022/09/09 00:52:04;;;;;;;15.20;11.10;;;;;;;14.03;88.47;97255.73;110001;1248;59838;-68
2022/09/09 00:55:06;;;;;;;14.10;10.70;;;;;;;14.02;87.78;97251.42;110047;1247;60459;-66
2022/09/09 00:57:41;;;;;;;15.90;11.20;;;;;;;14.01;88.30;97251.68;109765;1249;70701;-67
2022/09/09 01:00:32;;;;;;;12.80;9.90;;;;;;;14.01;89.03;97261.33;109673;1250;69247;-68
2022/09/09 01:03:10;;;;;;;14.60;11.10;;;;;;;13.98;89.51;97251.72;110076;1247;69440;-69
2022/09/09 01:06:07;;;;;;;16.10;13.50;;;;;;;13.96;89.28;97246.48;110109;1247;59705;-67
2022/09/09 01:09:07;;;;;;;14.10;11.60;;;;;;;13.96;88.10;97244.95;109915;1247;59733;-66
2022/09/09 01:11:53;;;;;;;14.20;10.40;;;;;;;13.98;87.51;97243.36;110004;1248;71549;-68
2022/09/09 01:14:37;;;;;;;17.20;12.90;;;;;;;13.98;86.12;97235.85;109921;1247;68599;-67
2022/09/09 01:17:27;;;;;;;14.70;11.40;;;;;;;14.02;85.79;97233.71;110070;1247;69385;-67
2022/09/09 01:20:17;;;;;;;15.50;13.50;;;;;;;14.09;86.69;97249.32;109882;1247;59732;-68
2022/09/09 01:22:59;;;;;;;16.30;12.90;;;;;;;14.10;87.23;97250.34;110106;1247;59667;-67
2022/09/09 01:26:07;;;;;;;16.10;13.20;;;;;;;14.09;86.54;97247.44;110097;1249;71535;-68
2022/09/09 01:28:40;;;;;;;15.40;12.40;;;;;;;14.11;85.89;97246.07;110131;1247;68449;-67
2022/09/09 01:31:28;;;;;;;14.90;12.50;;;;;;;14.11;86.45;97244.98;109722;1247;69420;-69
2022/09/09 01:34:01;;;;;;;15.50;12.50;;;;;;;14.09;86.35;97238.70;110014;1248;59767;-67
2022/09/09 01:36:39;;;;;;;17.10;13.00;;;;;;;14.07;85.73;97238.70;110009;1247;59708;-67
2022/09/09 01:39:12;;;;;;;14.90;11.60;;;;;;;14.06;87.45;97249.10;110095;1247;70810;-67
2022/09/09 01:41:42;;;;;;;14.70;12.40;;;;;;;14.04;86.95;97242.65;110009;1248;68696;-66
2022/09/09 01:44:15;;;;;;;14.40;12.00;;;;;;;14.04;86.95;97232.83;109999;1247;68777;-67
2022/09/09 01:46:46;;;;;;;14.80;13.00;;;;;;;14.04;88.69;97236.52;110086;1247;59727;-67
2022/09/09 01:49:22;;;;;;;13.20;11.00;;;;;;;13.96;87.56;97242.29;109849;1250;59685;-67
2022/09/09 01:51:55;;;;;;;13.30;9.50;;;;;;;13.92;86.82;97248.40;109929;1249;70843;-67
2022/09/09 01:54:33;;;;;;;13.20;10.80;;;;;;;13.91;86.12;97245.77;110051;1247;69108;-68
2022/09/09 01:57:39;;;;;;;13.00;10.70;;;;;;;13.92;87.72;97245.84;110060;1247;68635;-68
2022/09/09 02:00:13;;;;;;;13.20;11.20;;;;;;;13.93;88.83;97238.69;110083;1247;59689;-67
2022/09/09 02:02:49;;;;;;;15.60;11.90;;;;;;;13.94;87.93;97234.43;110105;1247;59750;-67
2022/09/09 02:05:49;;;;;;;16.10;13.00;;;;;;;13.98;87.93;97237.73;110085;1247;70668;-67
2022/09/09 02:08:29;;;;;;;14.20;11.40;;;;;;;14.04;88.89;97237.71;110030;1248;68608;-67
2022/09/09 02:11:13;;;;;;;12.80;11.00;;;;;;;14.11;88.31;97239.23;109920;1247;68691;-68
2022/09/09 02:14:22;;;;;;;13.70;10.90;;;;;;;14.17;88.56;97238.63;109993;1248;59771;-67
2022/09/09 02:17:03;;;;;;;13.60;10.20;;;;;;;14.23;87.64;97239.90;109995;1247;59733;-67
2022/09/09 02:20:02;;;;;;;12.40;10.10;;;;;;;14.28;86.87;97238.37;110133;1247;70809;-68
2022/09/09 02:23:00;;;;;;;12.10;10.20;;;;;;;14.34;86.51;97235.05;110013;1247;67623;-67
2022/09/09 02:25:33;;;;;;;11.40;9.20;;;;;;;14.41;86.06;97232.09;109928;1247;68665;-69
2022/09/09 02:28:14;;;;;;;12.60;9.30;;;;;;;14.47;85.57;97231.92;110190;1248;59689;-67
2022/09/09 02:30:48;;;;;;;10.30;8.30;;;;;;;14.50;85.65;97227.61;110224;1247;59687;-69
2022/09/09 02:33:20;;;;;;;10.90;9.60;;;;;;;14.52;85.30;97226.19;109929;1250;70809;-67
2022/09/09 02:35:56;;;;;;;9.90;8.20;;;;;;;14.54;84.83;97230.08;109993;1248;69376;-66
2022/09/09 02:38:28;;;;;;;12.30;9.60;;;;;;;14.56;84.55;97231.33;110174;1247;68803;-67
2022/09/09 02:41:03;;;;;;;14.80;9.90;;;;;;;14.58;84.29;97230.44;110144;1247;59760;-67
2022/09/09 02:43:35;;;;;;;11.90;10.30;;;;;;;14.61;84.25;97226.59;110144;1247;59722;-67
2022/09/09 02:46:41;;;;;;;14.30;10.20;;;;;;;14.66;84.05;97220.52;110025;1248;72260;-67
2022/09/09 02:49:29;;;;;;;13.70;11.60;;;;;;;14.72;84.24;97217.15;110054;1247;69276;-67
2022/09/09 02:52:05;;;;;;;13.50;11.50;;;;;;;14.76;84.84;97222.70;109980;1248;69394;-69
2022/09/09 02:54:38;;;;;;;10.60;9.50;;;;;;;14.79;84.64;97216.55;110140;1247;59683;-67
2022/09/09 02:57:23;;;;;;;12.70;9.00;;;;;;;14.80;84.11;97219.96;110163;1247;59682;-67
2022/09/09 02:59:53;;;;;;;11.80;9.00;;;;;;;14.82;84.11;97225.95;110167;1248;71554;-67
2022/09/09 03:02:25;;;;;;;13.20;10.60;;;;;;;14.82;83.94;97229.71;110243;1247;68592;-67
2022/09/09 03:04:59;;;;;;;10.50;9.40;;;;;;;14.87;83.93;97234.23;110125;1247;67551;-67
2022/09/09 03:07:28;;;;;;;;;;;;;;;14.89;83.41;97239.10;110174;1247;59680;-69
2022/09/09 03:09:58;;;;;;;11.20;9.50;;;;;;;14.93;83.96;97244.02;109925;1248;59773;-69
2022/09/09 03:12:29;;;;;;;10.60;9.40;;;;;;;14.98;83.85;97242.18;110267;1247;70908;-68
2022/09/09 03:14:58;;;;;;;10.90;9.80;;;;;;;15.02;83.34;97241.73;110194;1247;69387;-68
2022/09/09 03:17:28;;;;;;;11.90;10.40;;;;;;;15.07;83.48;97240.42;110164;1247;69419;-68
2022/09/09 03:19:58;;;;;;;13.50;9.80;;;;;;;15.10;83.53;97234.69;109857;1248;59821;-68
2022/09/09 03:22:28;;;;;;;10.30;9.20;;;;;;;15.13;83.33;97224.01;110176;1247;59697;-68
2022/09/09 03:25:00;;;;;;;10.00;8.90;;;;;;;15.17;82.74;97225.46;110234;1247;70830;-69
2022/09/09 03:27:30;;;;;;;9.50;8.50;;;;;;;15.20;82.44;97228.43;110070;1247;69399;-70
2022/09/09 03:30:03;;;;;;;10.10;8.60;;;;;;;15.24;82.20;97229.89;110150;1247;69420;-69
2022/09/09 03:32:32;;;;;;;10.20;8.70;;;;;;;15.24;82.20;97232.63;110269;1247;59706;-67
2022/09/09 03:35:02;;;;;;;;;;;;;;;15.25;82.92;97231.11;109841;1250;59638;-69
2022/09/09 03:37:32;;;;;;;12.50;10.10;;;;;;;15.26;83.54;97226.67;110152;1248;70965;-68
2022/09/09 03:40:02;;;;;;;10.60;8.50;;;;;;;15.27;82.64;97226.52;109855;1250;68638;-67
2022/09/09 03:42:32;;;;;;;9.70;8.10;;;;;;;15.29;82.17;97237.94;109809;1248;68492;-67
2022/09/09 03:45:01;;;;;;;11.70;9.40;;;;;;;15.31;81.69;97246.23;109869;1250;59831;-67
2022/09/09 03:47:32;;;;;;;11.60;10.00;;;;;;;15.35;82.57;97251.17;109860;1249;59751;-68
2022/09/09 03:50:10;;;;;;;10.60;9.40;;;;;;;15.36;82.46;97252.96;110119;1247;70773;-68
2022/09/09 03:52:42;;;;;;;12.10;9.00;;;;;;;15.37;82.81;97249.22;109881;1250;69259;-70
2022/09/09 03:55:17;;;;;;;14.00;11.10;;;;;;;15.35;83.89;97240.41;109877;1250;68666;-71
2022/09/09 03:57:47;;;;;;;11.40;9.70;;;;;;;15.34;84.49;97249.64;110003;1248;59767;-68
2022/09/09 04:00:16;;;;;;;10.70;8.80;;;;;;;15.34;82.86;97259.34;110252;1250;59693;-68
2022/09/09 04:02:49;;;;;;;12.10;9.10;;;;;;;15.32;82.59;97284.95;109811;1250;70725;-70
2022/09/09 04:05:19;;;;;;;12.00;9.20;;;;;;;15.32;82.42;97325.14;109976;1250;68953;-69
2022/09/09 04:07:51;;;;;;;13.40;11.30;;;;;;;15.32;82.66;97337.42;110095;1247;69353;-68
2022/09/09 04:10:20;;;;;;;11.10;9.90;;;;;;;15.35;82.18;97341.38;110000;1247;59736;-68
2022/09/09 04:12:50;;;;;;;13.00;10.90;;;;;;;15.39;82.32;97369.80;110040;1247;59707;-67
2022/09/09 04:15:19;;;;;;;12.70;10.80;;;;;;;15.35;83.36;97378.08;110138;1247;71714;-67
2022/09/09 04:17:49;;;;;;;12.90;11.40;;;;;;;15.28;83.68;97379.70;110334;1247;68607;-69
2022/09/09 04:20:19;;;;;;;14.80;12.30;;;;;;;15.22;84.56;97366.99;109956;1250;69238;-67
2022/09/09 04:22:49;;;;;;;16.50;13.00;;;;;;;15.17;85.95;97375.12;110133;1248;59657;-70
2022/09/09 04:25:18;;;;;;;12.50;11.10;;;;;;;15.14;86.25;97359.77;110112;1247;59726;-67
2022/09/09 04:27:54;;;;;;;;;;;;;;;15.13;86.02;97360.38;110010;1248;70718;-66
2022/09/09 04:30:27;;;;;;;16.80;11.50;;;;;;;15.11;85.02;97359.02;110025;1248;69228;-68
2022/09/09 04:32:57;;;;;;;11.90;10.20;;;;;;;15.08;84.79;97353.48;109990;1248;69406;-67
2022/09/09 04:35:27;;;;;;;14.00;11.90;;;;;;;15.00;85.24;97354.38;110207;1247;59699;-66
2022/09/09 04:37:57;;;;;;;16.90;13.40;;;;;;;14.93;86.01;97359.96;110094;1248;59704;-67
2022/09/09 04:40:26;;;;;;;;;;;;;;;14.91;86.48;97347.88;110147;1247;71972;-66
2022/09/09 04:43:00;;;;;;;15.70;12.10;;;;;;;14.89;86.91;97345.85;109813;1250;68711;-67
2022/09/09 04:45:30;;;;;;;15.60;12.40;;;;;;;14.85;91.37;97341.25;110148;1247;68732;-68
2022/09/09 04:48:00;;;;;;;15.60;12.50;;;;;;;14.85;91.10;97339.51;109777;1250;59701;-67
2022/09/09 04:50:31;;;;;;;16.00;13.20;;;;;;;14.86;92.19;97334.02;110112;1248;59742;-67
2022/09/09 04:53:04;;;;;;;17.70;14.60;;;;;;;14.86;92.72;97330.14;110226;1247;70814;-67
2022/09/09 04:55:35;;;;;;;15.30;13.00;;;;;;;14.85;92.48;97320.55;110039;1248;68700;-67
2022/09/09 04:58:07;;;;;;;16.30;12.80;;;;;;;14.86;89.67;97320.96;110113;1247;68480;-67
2022/09/09 05:00:38;;;;;;;13.60;11.90;;;;;;;14.85;91.23;97324.07;109789;1249;59825;-67
2022/09/09 05:03:11;;;;;;;14.60;11.50;;;;;;;14.87;89.02;97322.52;110171;1247;59735;-67
2022/09/09 05:05:40;;;;;;;16.30;11.60;;;;;;;14.88;89.51;97331.32;110191;1248;71329;-66
2022/09/09 05:08:10;;;;;;;13.90;11.40;;;;;;;14.89;89.93;97333.31;110125;1247;68616;-67
2022/09/09 05:10:39;;;;;;;15.30;13.30;;;;;;;14.91;88.62;97324.17;110089;1247;68636;-65
2022/09/09 05:13:08;;;;;;;18.50;14.30;;;;;;;14.89;89.23;97316.45;110157;1248;59751;-66
2022/09/09 05:15:39;;;;;;;17.40;13.80;;;;;;;14.86;90.92;97313.92;109862;1250;59821;-66
2022/09/09 05:18:09;;;;;;;15.60;12.90;;;;;;;14.87;93.97;97315.45;110302;1247;71432;-66
2022/09/09 05:20:38;;;;;;;;;;;;;;;14.91;93.80;97312.84;110093;1248;68570;-67
2022/09/09 05:23:11;;;;;;;16.10;12.60;;;;;;;14.97;92.98;97315.96;109961;1248;69313;-64
2022/09/09 05:25:41;;;;;;;17.70;13.80;;;;;;;15.02;95.80;97314.93;110327;1248;59821;-65
2022/09/09 05:28:11;;;;;;;16.60;13.00;;;;;;;15.08;95.60;97318.97;110207;1247;59750;-67
2022/09/09 05:30:40;;;;;;;12.70;10.50;;;;;;;15.13;94.36;97325.19;110488;1248;70782;-64
2022/09/09 05:33:10;;;;;;;15.30;12.40;;;;;;;15.18;92.17;97332.42;110169;1247;69396;-64
2022/09/09 05:35:39;;;;;;;14.80;12.00;;;;;;;15.22;91.58;97333.41;110078;1247;68625;-67
2022/09/09 05:38:08;;;;;;;14.00;11.70;;;;;;;15.26;89.85;97326.74;110184;1246;60114;-68
2022/09/09 05:40:38;;;;;;;15.90;12.70;;;;;;;15.29;92.18;97323.26;109916;1247;59707;-68
2022/09/09 05:43:07;;;;;;;14.10;11.40;;;;;;;15.35;93.18;97317.84;110058;1250;69830;-68
2022/09/09 05:45:36;;;;;;;13.70;11.90;;;;;;;15.43;92.07;97320.11;110180;1247;69386;-67
2022/09/09 05:48:07;;;;;;;13.30;10.30;;;;;;;15.52;92.19;97327.60;110145;1248;67716;-69
2022/09/09 05:50:36;;;;;;;13.40;11.50;;;;;;;15.63;92.55;97325.02;109956;1247;59728;-68
2022/09/09 05:53:06;;;;;;;16.10;12.20;;;;;;;15.74;92.90;97321.74;109890;1248;59636;-67
2022/09/09 05:55:35;;;;;;;;;;;;;;;15.85;93.26;97323.32;110406;1247;70737;-69
2022/09/09 05:58:04;;;;;;;12.70;10.20;;;;;;;15.95;92.76;97323.71;110240;1247;68501;-68
2022/09/09 06:00:33;;;;;;;15.20;12.10;;;;;;;16.09;92.73;97327.68;109988;1249;68657;-68
2022/09/09 06:03:03;;;;;;;12.20;10.00;;;;;;;16.21;93.12;97336.48;110133;1247;59687;-67
2022/09/09 06:05:35;;;;;;;13.10;10.50;;;;;;;16.33;92.00;97340.81;110104;1248;59704;-70
2022/09/09 06:08:04;;;;;;;12.50;10.60;;;;;;;16.43;91.33;97339.29;110060;1249;71350;-68
2022/09/09 06:10:34;;;;;;;11.70;9.50;;;;;;;16.54;90.50;97341.98;110247;1247;69367;-69
2022/09/09 06:13:04;;;;;;;12.70;11.40;;;;;;;16.61;89.07;97355.02;110085;1248;67616;-69
2022/09/09 06:15:38;;;;;;;16.50;13.90;;;;;;;16.66;88.62;97359.20;110162;1248;59770;-68
2022/09/09 06:18:07;;;;;;;14.10;12.20;;;;;;;16.70;88.53;97356.14;110252;1247;59617;-69
2022/09/09 06:20:36;;;;;;;14.50;11.30;;;;;;;16.75;89.18;97352.05;110104;1247;70778;-68
2022/09/09 06:23:05;;;;;;;13.00;11.60;;;;;;;16.84;88.31;97355.20;109691;1247;69322;-68
2022/09/09 06:25:35;;;;;;;12.40;11.10;;;;;;;16.86;88.17;97362.05;109746;1250;69497;-70
2022/09/09 06:28:05;;;;;;;12.20;10.90;;;;;;;16.96;87.74;97371.27;109849;1248;59751;-68
2022/09/09 06:30:41;;;;;;;11.00;9.80;;;;;;;17.04;86.72;97381.77;110132;1247;59715;-68
2022/09/09 06:33:10;;;;;;;12.50;11.10;;;;;;;17.14;86.07;97392.85;110188;1248;71771;-67
2022/09/09 06:35:45;;;;;;;13.10;11.40;;;;;;;17.07;84.30;97408.73;110099;1248;67967;-68
2022/09/09 06:38:15;;;;;;;14.00;11.70;;;;;;;16.92;87.17;97418.27;110090;1247;69394;-66
2022/09/09 06:40:54;;;;;;;16.40;14.60;;;;;;;16.87;88.34;97411.41;110029;1248;59666;-67
2022/09/09 06:43:27;;;;;;;14.00;12.00;;;;;;;16.81;88.34;97397.20;110056;1249;59606;-67
2022/09/09 06:45:58;;;;;;;14.50;12.80;;;;;;;16.83;88.10;97377.20;110087;1247;71440;-65
2022/09/09 06:48:27;;;;;;;14.90;13.00;;;;;;;16.84;87.76;97356.61;110037;1247;69401;-67
2022/09/09 06:51:05;;;;;;;18.80;14.90;;;;;;;16.80;88.40;97357.38;110039;1248;68270;-66
2022/09/09 06:53:36;;;;;;;18.20;16.10;;;;;;;16.74;88.29;97346.63;110064;1247;59712;-66
2022/09/09 06:56:11;;;;;;;18.50;16.40;;;;;;;16.69;88.66;97329.20;110041;1248;59667;-66
2022/09/09 06:58:45;;;;;;;17.10;14.60;;;;;;;16.66;88.34;97307.72;110066;1247;69632;-66
2022/09/09 07:01:25;;;;;;;16.80;14.00;;;;;;;16.53;89.78;97310.39;110084;1248;68653;-66
2022/09/09 07:03:58;;;;;;;17.30;12.90;;;;;;;16.44;92.39;97314.65;110072;1248;69446;-66
2022/09/09 07:06:30;;;;;;;17.90;14.10;;;;;;;16.44;91.73;97312.14;110026;1248;59770;-65
2022/09/09 07:09:03;;;;;;;18.60;14.10;;;;;;;16.43;91.24;97312.02;110081;1247;59719;-65
2022/09/09 07:11:38;;;;;;;18.70;15.00;;;;;;;16.43;92.48;97327.18;110034;1248;69876;-66
2022/09/09 07:14:07;;;;;;;23.20;17.10;;;;;;;16.43;92.04;97340.52;110076;1248;68543;-66
2022/09/09 07:16:37;;;;;;;17.40;13.70;;;;;;;16.42;91.96;97338.22;110012;1247;69409;-67
2022/09/09 07:19:06;;;;;;;16.80;13.30;;;;;;;16.46;90.98;97333.60;110072;1247;59676;-67
2022/09/09 07:21:35;;;;;;;16.60;13.10;;;;;;;16.56;90.46;97327.81;110050;1247;60150;-67
2022/09/09 07:24:07;;;;;;;16.30;13.80;;;;;;;16.65;91.96;97319.43;110040;1248;71578;-66
2022/09/09 07:26:38;;;;;;;14.40;12.60;;;;;;;16.77;90.42;97309.92;110070;1247;68653;-65
2022/09/09 07:29:08;;;;;;;15.30;12.80;;;;;;;16.85;92.73;97307.98;110067;1248;69408;-66
2022/09/09 07:31:39;;;;;;;;;;;;;;;16.92;94.10;97307.62;110113;1247;60196;-68
2022/09/09 07:34:12;;;;;;;15.10;13.00;;;;;;;17.03;94.03;97302.28;110110;1247;59632;-67
2022/09/09 07:36:41;;;;;;;15.50;12.20;;;;;;;17.13;93.66;97300.17;110077;1247;70729;-64
2022/09/09 07:39:13;;;;;;;13.30;11.90;;;;;;;17.23;91.23;97300.36;110016;1248;68665;-68
2022/09/09 07:41:48;;;;;;;15.30;13.70;;;;;;;17.32;90.53;97300.16;110041;1247;68745;-66
2022/09/09 07:44:22;;;;;;;17.60;13.90;;;;;;;17.40;90.93;97295.67;109983;1247;59685;-68
2022/09/09 07:46:55;;;;;;;12.10;10.80;;;;;;;17.51;90.05;97288.36;110094;1247;59677;-68
2022/09/09 07:49:28;;;;;;;12.30;10.30;;;;;;;17.63;88.68;97289.48;110047;1250;70868;-67
2022/09/09 07:52:02;;;;;;;12.00;10.80;;;;;;;17.78;87.79;97292.27;110047;1247;68494;-66
2022/09/09 07:54:32;;;;;;;11.40;9.90;;;;;;;17.92;87.05;97290.11;110019;1247;68647;-67
2022/09/09 07:57:04;;;;;;;11.40;10.20;;;;;;;18.07;86.08;97290.52;109761;1250;59691;-67
2022/09/09 07:59:35;;;;;;;12.70;10.70;;;;;;;18.20;85.74;97298.98;110070;1247;59753;-70
2022/09/09 08:02:05;;;;;;;12.40;10.10;;;;;;;18.27;84.74;97296.48;110184;1247;71359;-69
2022/09/09 08:04:35;;;;;;;12.10;10.40;;;;;;;18.34;84.96;97294.52;110075;1248;69307;-68
2022/09/09 08:07:06;;;;;;;;;;;;;;;18.41;84.10;97295.16;110035;1247;68789;-69
2022/09/09 08:09:40;;;;;;;12.20;10.90;;;;;;;18.44;83.71;97292.44;110128;1248;59816;-69
2022/09/09 08:12:21;;;;;;;12.80;10.00;;;;;;;18.46;83.54;97292.84;110111;1248;59756;-69
2022/09/09 08:14:51;;;;;;;10.20;8.20;;;;;;;18.47;82.94;97289.27;110064;1250;70721;-68
2022/09/09 08:17:25;;;;;;;9.80;8.80;;;;;;;18.46;82.10;97286.23;110116;1248;68635;-69
2022/09/09 08:19:54;;;;;;;11.60;9.60;;;;;;;18.41;81.94;97279.73;109814;1250;69346;-68
2022/09/09 08:22:26;;;;;;;10.60;9.40;;;;;;;18.37;81.83;97282.63;110038;1248;59802;-69
2022/09/09 08:24:55;;;;;;;11.90;9.90;;;;;;;18.34;81.63;97285.52;110015;1250;59692;-68
2022/09/09 08:27:24;;;;;;;10.10;8.90;;;;;;;18.31;81.44;97288.13;110066;1250;71400;-65
2022/09/09 08:29:53;;;;;;;8.60;7.80;;;;;;;18.30;81.67;97291.79;110051;1247;68636;-67
2022/09/09 08:32:22;;;;;;;11.80;10.60;;;;;;;18.29;81.29;97294.83;110027;1248;68615;-66
2022/09/09 08:34:52;;;;;;;10.60;9.30;;;;;;;18.28;81.30;97294.44;110016;1248;59786;-66
2022/09/09 08:37:29;;;;;;;11.40;10.20;;;;;;;18.29;81.80;97301.02;110005;1248;59695;-66
2022/09/09 08:39:58;;;;;;;11.20;10.00;;;;;;;18.33;82.91;97314.16;110036;1250;71511;-66
2022/09/09 08:42:41;;;;;;;9.70;8.60;;;;;;;18.39;82.36;97323.33;109840;1250;68695;-67
2022/09/09 08:45:26;;;;;;;10.00;8.70;;;;;;;18.43;81.21;97329.54;109913;1250;68479;-66
2022/09/09 08:48:12;;;;;;;11.10;9.10;;;;;;;18.47;80.88;97322.05;110052;1248;59691;-67
2022/09/09 08:50:43;;;;;;;9.80;8.80;;;;;;;18.46;80.24;97311.73;109895;1249;60120;-67
2022/09/09 08:53:39;;;;;;;11.50;8.90;;;;;;;18.46;80.33;97302.58;110004;1250;71069;-65
2022/09/09 08:56:16;;;;;;;10.60;9.50;;;;;;;18.48;80.24;97299.73;109952;1250;69398;-67
2022/09/09 08:58:57;;;;;;;9.70;8.70;;;;;;;18.50;80.37;97295.46;109997;1250;68653;-66
2022/09/09 09:02:03;;;;;;;9.70;8.70;;;;;;;18.55;81.00;97300.77;109979;1250;60122;-66
2022/09/09 09:05:25;;;;;;;9.10;8.00;;;;;;;18.63;79.97;97301.36;110064;1250;59698;-66
2022/09/09 09:08:22;;;;;;;10.30;8.70;;;;;;;18.73;79.51;97307.88;110033;1249;70757;-66
2022/09/09 09:10:56;;;;;;;10.20;8.70;;;;;;;18.76;78.97;97306.42;110052;1250;69504;-66
2022/09/09 09:13:49;;;;;;;10.40;9.20;;;;;;;18.79;78.61;97309.64;109912;1250;69459;-67
2022/09/09 09:16:25;;;;;;;8.00;7.20;;;;;;;18.85;78.59;97310.23;109908;1248;59747;-66
2022/09/09 09:18:55;;;;;;;8.90;8.00;;;;;;;18.90;78.28;97314.86;110023;1248;59679;-67
2022/09/09 09:22:03;;;;;;;11.00;9.20;;;;;;;18.96;78.30;97313.60;110005;1250;71540;-67
2022/09/09 09:25:02;;;;;;;9.90;8.90;;;;;;;19.04;77.67;97316.81;109224;1257;68612;-68
2022/09/09 09:27:39;;;;;;;8.70;7.80;;;;;;;19.12;77.65;97313.89;110064;1250;69429;-68
2022/09/09 09:30:20;;;;;;;11.30;10.20;;;;;;;19.17;78.99;97303.80;109820;1250;59706;-66
2022/09/09 09:33:12;;;;;;;12.40;9.20;;;;;;;19.20;79.60;97303.45;110119;1249;59757;-68
2022/09/09 09:35:41;;;;;;;10.20;9.00;;;;;;;19.20;79.10;97302.76;109947;1250;71178;-67
2022/09/09 09:38:27;;;;;;;9.70;8.70;;;;;;;19.21;78.93;97303.02;110076;1248;68465;-67
2022/09/09 09:41:18;;;;;;;9.80;8.80;;;;;;;19.20;79.44;97302.36;110027;1248;68691;-67
2022/09/09 09:43:54;;;;;;;10.90;9.10;;;;;;;19.14;80.21;97303.26;109890;1249;59776;-64
2022/09/09 09:46:25;;;;;;;10.50;8.70;;;;;;;19.06;80.11;97304.40;109767;1250;59719;-67
2022/09/09 09:49:03;;;;;;;11.00;8.60;;;;;;;18.99;80.38;97303.95;109975;1250;70745;-66
2022/09/09 09:51:34;;;;;;;10.10;8.80;;;;;;;18.91;81.61;97292.69;109954;1249;69315;-67
2022/09/09 09:54:30;;;;;;;8.80;7.70;;;;;;;18.85;81.95;97289.22;109823;1250;68963;-66
2022/09/09 09:57:13;;;;;;;9.60;8.60;;;;;;;18.86;82.56;97304.34;109799;1251;59724;-66
2022/09/09 09:59:42;;;;;;;11.80;10.50;;;;;;;18.91;84.47;97301.33;110033;1248;59760;-66
2022/09/09 10:02:26;;;;;;;11.30;9.90;;;;;;;18.92;85.65;97296.66;110056;1248;71515;-66
2022/09/09 10:05:18;;;;;;;11.10;9.90;;;;;;;18.98;87.03;97294.70;110060;1248;68641;-67
2022/09/09 10:08:21;;;;;;;10.30;9.20;;;;;;;19.14;85.55;97296.15;110018;1250;69888;-66
2022/09/09 10:11:17;;;;;;;9.70;8.70;;;;;;;19.29;84.98;97304.89;110120;1248;59740;-66
2022/09/09 10:14:17;;;;;;;10.60;9.10;;;;;;;19.46;84.44;97318.58;110086;1248;59673;-67
2022/09/09 10:17:14;;;;;;;10.10;8.20;;;;;;;19.59;82.48;97322.95;110060;1250;71214;-67
2022/09/09 10:20:02;;;;;;;9.50;8.60;;;;;;;19.66;81.02;97339.20;110091;1247;68691;-66
2022/09/09 10:22:34;;;;;;;12.10;10.10;;;;;;;19.69;79.66;97351.23;110128;1247;69833;-66
2022/09/09 10:25:08;;;;;;;11.00;9.20;;;;;;;19.50;79.15;97355.27;110113;1248;59696;-67
2022/09/09 10:28:13;;;;;;;8.90;8.00;;;;;;;19.23;78.87;97359.92;110151;1248;59775;-68
2022/09/09 10:31:17;;;;;;;9.30;8.30;;;;;;;19.24;80.33;97362.14;110135;1248;71644;-65
2022/09/09 10:34:06;;;;;;;12.50;10.70;;;;;;;19.21;79.56;97381.39;110089;1247;69221;-64
2022/09/09 10:36:43;;;;;;;12.80;10.30;;;;;;;19.05;80.67;97393.23;110069;1248;68638;-65
2022/09/09 10:39:15;;;;;;;10.20;9.20;;;;;;;18.93;81.07;97384.82;110055;1248;59685;-67
2022/09/09 10:41:43;;;;;;;12.20;10.90;;;;;;;18.87;81.22;97381.71;110086;1248;59672;-65
2022/09/09 10:44:50;;;;;;;10.30;9.20;;;;;;;18.83;80.96;97384.61;110136;1248;71507;-64
2022/09/09 10:48:01;;;;;;;10.50;9.30;;;;;;;18.82;81.21;97381.05;109588;1249;69471;-67
2022/09/09 10:50:59;;;;;;;13.10;11.50;;;;;;;18.80;82.67;97382.77;110049;1248;68735;-63
2022/09/09 10:53:47;;;;;;;12.70;11.00;;;;;;;18.74;83.08;97384.64;109987;1249;59779;-64
2022/09/09 10:56:20;;;;;;;12.10;10.70;;;;;;;18.77;81.86;97375.73;110089;1247;59685;-68
2022/09/09 10:59:05;;;;;;;14.80;12.90;;;;;;;18.77;82.82;97377.08;110124;1247;70625;-66
2022/09/09 11:01:44;;;;;;;13.00;10.10;;;;;;;18.77;84.58;97380.90;110117;1247;69400;-67
2022/09/09 11:04:39;;;;;;;12.40;9.90;;;;;;;18.77;82.61;97376.89;110066;1247;68629;-65
2022/09/09 11:07:13;;;;;;;9.10;8.20;;;;;;;18.77;82.46;97370.28;110057;1248;59690;-66
2022/09/09 11:09:55;;;;;;;12.80;9.80;;;;;;;18.74;84.40;97376.89;110110;1246;59702;-67
2022/09/09 11:12:26;;;;;;;10.50;9.40;;;;;;;18.73;83.65;97376.10;110090;1248;70852;-66
2022/09/09 11:15:15;;;;;;;12.70;11.40;;;;;;;18.75;83.77;97376.30;110132;1248;69419;-66
2022/09/09 11:17:58;;;;;;;12.20;10.40;;;;;;;18.74;83.99;97374.27;110155;1249;69483;-66
2022/09/09 11:20:28;;;;;;;15.60;13.50;;;;;;;18.73;84.48;97375.84;110141;1247;59751;-66
2022/09/09 11:23:15;;;;;;;13.40;11.90;;;;;;;18.71;85.83;97377.71;110181;1247;59671;-66
2022/09/09 11:25:56;;;;;;;13.80;11.00;;;;;;;18.72;86.55;97378.94;110154;1248;70989;-66
2022/09/09 11:28:59;;;;;;;13.20;11.10;;;;;;;18.74;88.63;97381.89;110067;1248;68849;-66
2022/09/09 11:31:44;;;;;;;11.80;10.40;;;;;;;18.79;88.23;97375.90;110110;1248;68879;-66
2022/09/09 11:34:26;;;;;;;14.80;12.60;;;;;;;18.83;88.89;97379.52;110086;1248;59828;-66
2022/09/09 11:37:19;;;;;;;13.50;11.40;;;;;;;18.85;88.66;97377.73;110082;1247;59701;-66
2022/09/09 11:39:59;;;;;;;12.40;11.10;;;;;;;18.90;88.89;97376.72;110104;1248;71627;-66
2022/09/09 11:42:30;;;;;;;13.50;10.90;;;;;;;18.98;89.13;97371.41;110134;1248;68679;-66
2022/09/09 11:45:21;;;;;;;11.90;10.30;;;;;;;19.06;86.98;97371.58;110093;1248;69526;-66
2022/09/09 11:48:01;;;;;;;11.70;10.30;;;;;;;19.12;85.61;97369.29;110063;1248;59696;-66
2022/09/09 11:50:31;;;;;;;;;;;;;;;19.18;86.09;97376.79;110126;1248;59652;-66
2022/09/09 11:53:22;;;;;;;13.20;10.60;;;;;;;19.22;88.15;97380.75;110143;1247;71335;-67
2022/09/09 11:56:04;;;;;;;15.90;13.80;;;;;;;19.25;86.53;97372.50;110101;1247;68524;-66
2022/09/09 11:58:55;;;;;;;13.30;11.80;;;;;;;19.24;85.64;97375.06;110110;1248;68718;-66
2022/09/09 12:01:33;;;;;;;12.80;11.50;;;;;;;19.20;84.92;97375.09;110103;1247;59750;-66
2022/09/09 12:04:11;;;;;;;13.90;11.90;;;;;;;19.17;87.24;97377.80;110085;1248;59717;-66